Welchs Creek, Kentucky
Current Conditions -  °F | °C
As of 2:53 PM on Saturday 27 Dec 2014 (Local Time) from KBWG Reporting Station
Light Rain Light Rain  
Wind Chill: 51°   Ceiling: 2900
Heat Index: 51°   Visibility: 5mi
Dew Point: 47°   Wind: 0mph
Humidity: 86%   Direction: NA
Pressure: 30.13"   Gusts: NA
Location:  37.24°N, 86.6°W
Report Text: KBWG 272053Z AUTO 00000KT 5SM -RA BR BKN029 BKN055 OVC070 11/08 A3013 RMK AO2 RAE24B32 SLP203 P0003 60006 T01060083 55014 $
Loading
Personal Weather Stations






























Interactive Weather Map New forecast layout! Learn more

10-Day Weather Forecast

Advertisements
Track Severe Weather on mobile